Time;durP1;ratioP1;P1;durP2;ratioP2;P2;SDS_P1;SDS_P2;PMS_P1;PMS_P2;Temp;Humidity;BMP_temperature;BMP_pressure;BME280_temperature;BME280_humidity;BME280_pressure;Samples;Min_cycle;Max_cycle;Signal;HPM_P1;HPM_P2
2023/06/19 00:00:12;;;;;;;10.13;6.20;;;;;;;;;;4934075;29;20032;-62
2023/06/19 00:02:38;;;;;;;11.30;6.82;;;;;;;;;;4932718;29;20110;-62
2023/06/19 00:05:03;;;;;;;9.93;6.15;;;;;;;;;;4933348;29;20159;-62
2023/06/19 00:07:28;;;;;;;9.40;6.33;;;;;;;;;;4939833;28;20016;-62
2023/06/19 00:09:53;;;;;;;8.80;5.97;;;;;;;;;;4933599;28;20998;-63
2023/06/19 00:12:18;;;;;;;8.32;5.78;;;;;;;;;;4941382;29;20099;-64
2023/06/19 00:14:44;;;;;;;9.60;6.40;;;;;;;;;;4944644;29;20023;-61
2023/06/19 00:17:09;;;;;;;8.80;5.88;;;;;;;;;;4938287;28;20529;-63
2023/06/19 00:19:36;;;;;;;10.23;6.53;;;;;;;;;;4944690;28;20078;-62
2023/06/19 00:22:01;;;;;;;9.63;6.38;;;;;;;;;;4945449;28;20026;-62
2023/06/19 00:24:26;;;;;;;9.18;6.72;;;;;;;;;;4937403;28;20031;-62
2023/06/19 00:26:51;;;;;;;8.57;6.10;;;;;;;;;;4940839;29;20058;-62
2023/06/19 00:29:17;;;;;;;10.43;6.80;;;;;;;;;;4940341;28;20031;-62
2023/06/19 00:31:42;;;;;;;8.27;6.07;;;;;;;;;;4941436;28;20029;-62
2023/06/19 00:34:07;;;;;;;9.93;6.18;;;;;;;;;;4932922;28;20040;-62
2023/06/19 00:36:32;;;;;;;10.95;6.82;;;;;;;;;;4937601;28;20027;-62
2023/06/19 00:38:57;;;;;;;9.90;6.43;;;;;;;;;;4940980;29;20115;-63
2023/06/19 00:41:23;;;;;;;10.07;6.37;;;;;;;;;;4941642;29;20031;-62
2023/06/19 00:43:48;;;;;;;10.07;6.72;;;;;;;;;;4940863;28;20527;-62
2023/06/19 00:46:14;;;;;;;8.85;6.55;;;;;;;;;;4946507;28;20031;-62
2023/06/19 00:48:39;;;;;;;9.77;6.87;;;;;;;;;;4938312;28;20402;-62
2023/06/19 00:51:04;;;;;;;10.20;6.90;;;;;;;;;;4946677;28;20085;-62
2023/06/19 00:53:30;;;;;;;10.48;6.68;;;;;;;;;;4944106;28;20103;-62
2023/06/19 00:55:56;;;;;;;10.07;6.68;;;;;;;;;;4944119;28;20032;-62
2023/06/19 00:58:21;;;;;;;10.32;6.68;;;;;;;;;;4946986;28;20093;-62
2023/06/19 01:00:47;;;;;;;8.80;7.03;;;;;;;;;;4951067;28;20486;-62
2023/06/19 01:03:12;;;;;;;9.57;6.45;;;;;;;;;;4947990;28;20027;-62
2023/06/19 01:05:37;;;;;;;10.17;6.80;;;;;;;;;;4936626;28;20062;-63
2023/06/19 01:08:11;;;;;;;10.98;7.13;;;;;;;;;;4946578;28;20062;-63
2023/06/19 01:10:39;;;;;;;9.25;6.90;;;;;;;;;;4942092;29;20431;-63
2023/06/19 01:13:10;;;;;;;9.38;6.90;;;;;;;;;;4939391;28;20031;-63
2023/06/19 01:15:36;;;;;;;9.05;6.47;;;;;;;;;;4939699;29;20063;-63
2023/06/19 01:18:01;;;;;;;9.90;6.78;;;;;;;;;;4934408;28;20034;-63
2023/06/19 01:20:28;;;;;;;8.60;6.47;;;;;;;;;;4935335;29;20020;-62
2023/06/19 01:22:56;;;;;;;8.73;6.30;;;;;;;;;;4936243;28;20034;-63
2023/06/19 01:25:21;;;;;;;10.75;6.75;;;;;;;;;;4934931;28;20111;-62
2023/06/19 01:27:47;;;;;;;11.00;7.13;;;;;;;;;;4942049;28;20039;-62
2023/06/19 01:30:12;;;;;;;9.70;6.72;;;;;;;;;;4943388;28;20532;-63
2023/06/19 01:32:37;;;;;;;11.35;7.22;;;;;;;;;;4936586;29;20032;-63
2023/06/19 01:35:04;;;;;;;10.85;7.25;;;;;;;;;;4934474;28;20138;-63
2023/06/19 01:37:33;;;;;;;10.95;6.93;;;;;;;;;;4935326;29;20032;-63
2023/06/19 01:39:59;;;;;;;9.82;6.90;;;;;;;;;;4933901;28;20106;-63
2023/06/19 01:42:25;;;;;;;10.13;6.85;;;;;;;;;;4932032;28;20107;-63
2023/06/19 01:44:50;;;;;;;11.63;7.50;;;;;;;;;;4945617;29;20111;-63
2023/06/19 01:47:19;;;;;;;11.00;7.13;;;;;;;;;;4933371;29;20026;-63
2023/06/19 01:49:44;;;;;;;9.75;6.72;;;;;;;;;;4932747;28;20024;-62
2023/06/19 01:52:10;;;;;;;10.10;7.23;;;;;;;;;;4938910;28;20075;-63
2023/06/19 01:54:35;;;;;;;11.25;7.47;;;;;;;;;;4936594;28;20031;-62
2023/06/19 01:57:00;;;;;;;9.63;7.05;;;;;;;;;;4934903;29;20039;-62
2023/06/19 01:59:25;;;;;;;13.47;7.20;;;;;;;;;;4943510;29;20114;-62
2023/06/19 02:01:50;;;;;;;9.00;6.97;;;;;;;;;;4934682;28;20063;-62
2023/06/19 02:04:15;;;;;;;11.90;7.37;;;;;;;;;;4942377;29;20027;-62
2023/06/19 02:06:41;;;;;;;10.80;7.15;;;;;;;;;;4944018;28;20023;-62
2023/06/19 02:09:07;;;;;;;9.70;7.10;;;;;;;;;;4939239;28;20169;-63
2023/06/19 02:11:32;;;;;;;;;;;;;;;;;;4943071;28;20032;-62
2023/06/19 02:13:57;;;;;;;10.27;6.68;;;;;;;;;;4943818;28;19919;-62
2023/06/19 02:16:23;;;;;;;10.75;6.97;;;;;;;;;;4946032;28;20054;-61
2023/06/19 02:18:48;;;;;;;10.87;6.47;;;;;;;;;;4945983;28;20026;-61
2023/06/19 02:21:13;;;;;;;9.48;6.88;;;;;;;;;;4935693;28;20015;-63
2023/06/19 02:23:38;;;;;;;10.15;6.88;;;;;;;;;;4941972;29;20027;-61
2023/06/19 02:26:03;;;;;;;9.03;6.73;;;;;;;;;;4938918;28;20039;-61
2023/06/19 02:28:28;;;;;;;11.73;6.90;;;;;;;;;;4940045;28;20383;-61
2023/06/19 02:30:54;;;;;;;9.55;6.47;;;;;;;;;;4939578;28;20038;-63
2023/06/19 02:33:19;;;;;;;10.47;7.07;;;;;;;;;;4938023;28;20043;-63
2023/06/19 02:35:44;;;;;;;12.83;7.33;;;;;;;;;;4940622;29;20487;-62
2023/06/19 02:38:09;;;;;;;11.77;7.13;;;;;;;;;;4939336;28;20037;-63
2023/06/19 02:40:34;;;;;;;11.60;7.27;;;;;;;;;;4945039;28;20454;-63
2023/06/19 02:42:59;;;;;;;11.60;7.50;;;;;;;;;;4936352;28;20063;-63
2023/06/19 02:45:25;;;;;;;9.27;6.63;;;;;;;;;;4936956;29;20032;-63
2023/06/19 02:47:51;;;;;;;10.23;7.07;;;;;;;;;;4940140;28;20035;-62
2023/06/19 02:50:16;;;;;;;10.30;7.03;;;;;;;;;;4939293;28;20043;-62
2023/06/19 02:52:42;;;;;;;9.48;6.43;;;;;;;;;;4938958;28;20080;-63
2023/06/19 02:55:07;;;;;;;10.53;7.40;;;;;;;;;;4937663;28;20047;-61
2023/06/19 02:57:33;;;;;;;11.65;7.43;;;;;;;;;;4942366;29;20438;-62
2023/06/19 02:59:58;;;;;;;10.13;7.15;;;;;;;;;;4939832;28;20015;-62
2023/06/19 03:02:23;;;;;;;10.18;7.05;;;;;;;;;;4940265;29;20500;-63
2023/06/19 03:04:49;;;;;;;10.10;7.15;;;;;;;;;;4944369;28;20027;-62
2023/06/19 03:07:14;;;;;;;11.68;7.32;;;;;;;;;;4942950;28;20031;-63
2023/06/19 03:09:39;;;;;;;10.40;6.87;;;;;;;;;;4942709;28;20575;-63
2023/06/19 03:12:05;;;;;;;11.03;7.63;;;;;;;;;;4938742;29;20479;-63
2023/06/19 03:14:30;;;;;;;9.73;6.83;;;;;;;;;;4941154;28;20141;-62
2023/06/19 03:16:55;;;;;;;10.07;6.82;;;;;;;;;;4941307;28;20570;-62
2023/06/19 03:19:20;;;;;;;12.00;7.75;;;;;;;;;;4942195;28;20035;-62
2023/06/19 03:21:45;;;;;;;10.90;7.00;;;;;;;;;;4939223;28;20578;-62
2023/06/19 03:24:10;;;;;;;12.43;6.82;;;;;;;;;;4937282;28;20024;-60
2023/06/19 03:26:36;;;;;;;13.10;7.22;;;;;;;;;;4940209;29;20102;-61
2023/06/19 03:29:01;;;;;;;10.63;7.20;;;;;;;;;;4944306;28;20035;-61
2023/06/19 03:31:26;;;;;;;10.57;7.00;;;;;;;;;;4938234;29;20022;-62
2023/06/19 03:33:51;;;;;;;10.45;7.07;;;;;;;;;;4952981;28;20050;-61
2023/06/19 03:36:16;;;;;;;10.30;6.88;;;;;;;;;;4945708;28;20059;-61
2023/06/19 03:38:41;;;;;;;12.60;6.77;;;;;;;;;;4940331;28;20027;-62
2023/06/19 03:41:06;;;;;;;9.57;6.82;;;;;;;;;;4952463;28;20070;-61
2023/06/19 03:43:32;;;;;;;8.77;6.60;;;;;;;;;;4952895;28;20015;-62
2023/06/19 03:45:57;;;;;;;10.67;7.03;;;;;;;;;;4951792;28;20055;-62
2023/06/19 03:48:22;;;;;;;10.52;7.15;;;;;;;;;;4936001;29;20032;-61
2023/06/19 03:50:47;;;;;;;9.93;7.25;;;;;;;;;;4940194;29;20036;-62
2023/06/19 03:53:12;;;;;;;10.23;6.70;;;;;;;;;;4934424;29;20094;-62
2023/06/19 03:55:37;;;;;;;9.48;7.10;;;;;;;;;;4942297;28;20042;-62
2023/06/19 03:58:03;;;;;;;10.63;7.00;;;;;;;;;;4934136;28;20034;-62
2023/06/19 04:00:28;;;;;;;9.90;6.40;;;;;;;;;;4933853;29;20047;-61
2023/06/19 04:02:53;;;;;;;9.48;6.68;;;;;;;;;;4933436;29;20383;-60
2023/06/19 04:05:19;;;;;;;9.88;6.78;;;;;;;;;;4934115;29;20023;-61
2023/06/19 04:07:44;;;;;;;9.90;7.07;;;;;;;;;;4941188;29;20065;-61
2023/06/19 04:10:11;;;;;;;10.77;6.60;;;;;;;;;;4941166;28;20051;-61
2023/06/19 04:12:36;;;;;;;9.63;6.57;;;;;;;;;;4937750;28;20095;-62
2023/06/19 04:15:01;;;;;;;10.17;6.53;;;;;;;;;;4935845;28;20564;-61
2023/06/19 04:17:27;;;;;;;9.70;6.87;;;;;;;;;;4941444;29;20528;-62
2023/06/19 04:19:52;;;;;;;8.83;6.57;;;;;;;;;;4947143;29;20023;-61
2023/06/19 04:22:17;;;;;;;10.00;7.00;;;;;;;;;;4940616;28;20054;-61
2023/06/19 04:24:42;;;;;;;10.40;6.50;;;;;;;;;;4944030;28;20027;-61
2023/06/19 04:27:10;;;;;;;9.23;6.43;;;;;;;;;;4938548;28;20043;-60
2023/06/19 04:29:35;;;;;;;9.85;6.63;;;;;;;;;;4944013;28;20015;-62
2023/06/19 04:32:03;;;;;;;9.68;6.55;;;;;;;;;;4941801;28;20387;-61
2023/06/19 04:34:28;;;;;;;9.52;6.45;;;;;;;;;;4936135;28;20024;-62
2023/06/19 04:36:53;;;;;;;10.52;6.90;;;;;;;;;;4930261;28;20522;-62
2023/06/19 04:39:18;;;;;;;10.80;6.50;;;;;;;;;;4937859;29;20035;-61
2023/06/19 04:41:44;;;;;;;9.32;6.63;;;;;;;;;;4933111;29;20070;-60
2023/06/19 04:44:09;;;;;;;9.50;7.20;;;;;;;;;;4940738;29;20265;-61
2023/06/19 04:46:34;;;;;;;9.18;6.18;;;;;;;;;;4941544;28;20027;-62
2023/06/19 04:48:59;;;;;;;10.48;6.68;;;;;;;;;;4931319;28;20062;-61
2023/06/19 04:51:26;;;;;;;8.82;6.10;;;;;;;;;;4944576;29;20027;-61
2023/06/19 04:53:51;;;;;;;;;;;;;;;;;;4941060;29;20059;-60
2023/06/19 04:56:17;;;;;;;9.35;5.82;;;;;;;;;;4933131;28;20409;-62
2023/06/19 04:58:49;;;;;;;9.07;5.77;;;;;;;;;;4933782;28;20016;-62
2023/06/19 05:01:14;;;;;;;9.48;6.30;;;;;;;;;;4937816;28;20037;-61
2023/06/19 05:03:39;;;;;;;10.93;6.80;;;;;;;;;;4933506;28;20036;-60
2023/06/19 05:06:05;;;;;;;10.27;6.03;;;;;;;;;;4936916;28;20066;-62
2023/06/19 05:08:30;;;;;;;11.80;6.50;;;;;;;;;;4942308;28;20483;-61
2023/06/19 05:10:56;;;;;;;12.20;6.50;;;;;;;;;;4938519;28;20036;-61
2023/06/19 05:13:21;;;;;;;11.63;6.28;;;;;;;;;;4934129;28;20110;-61
2023/06/19 05:15:46;;;;;;;10.63;6.65;;;;;;;;;;4944604;28;20114;-62
2023/06/19 05:18:11;;;;;;;9.33;6.10;;;;;;;;;;4941195;29;20074;-62
2023/06/19 05:20:36;;;;;;;10.35;7.00;;;;;;;;;;4939225;28;20482;-62
2023/06/19 05:23:02;;;;;;;10.13;6.50;;;;;;;;;;4945983;28;20094;-62
2023/06/19 05:25:27;;;;;;;13.10;5.88;;;;;;;;;;4947766;28;20026;-61
2023/06/19 05:27:52;;;;;;;11.32;6.35;;;;;;;;;;4939536;28;20118;-62
2023/06/19 05:30:17;;;;;;;12.07;7.10;;;;;;;;;;4951463;28;20027;-62
2023/06/19 05:32:43;;;;;;;9.23;6.50;;;;;;;;;;4944048;28;20105;-62
2023/06/19 05:35:08;;;;;;;10.05;6.45;;;;;;;;;;4960799;28;20028;-62
2023/06/19 05:37:33;;;;;;;11.97;7.23;;;;;;;;;;4972460;28;20023;-62
2023/06/19 05:39:59;;;;;;;11.00;6.35;;;;;;;;;;4974481;28;20054;-62
2023/06/19 05:42:24;;;;;;;11.25;6.88;;;;;;;;;;4941857;28;20107;-62
2023/06/19 05:44:49;;;;;;;11.07;6.07;;;;;;;;;;4936707;29;20094;-61
2023/06/19 05:47:16;;;;;;;8.80;6.13;;;;;;;;;;4936426;29;20412;-61
2023/06/19 05:49:42;;;;;;;10.90;5.93;;;;;;;;;;4958642;28;20498;-61
2023/06/19 05:52:07;;;;;;;10.65;6.88;;;;;;;;;;4954443;28;20032;-62
2023/06/19 05:54:32;;;;;;;12.05;6.70;;;;;;;;;;4966479;28;20434;-62
2023/06/19 05:56:57;;;;;;;10.05;5.95;;;;;;;;;;4955290;28;20076;-61
2023/06/19 05:59:22;;;;;;;11.38;6.20;;;;;;;;;;4967683;28;20027;-62
2023/06/19 06:01:47;;;;;;;9.73;6.60;;;;;;;;;;4974322;28;20047;-62
2023/06/19 06:04:13;;;;;;;9.43;6.17;;;;;;;;;;4961794;28;20106;-62
2023/06/19 06:06:38;;;;;;;11.10;6.32;;;;;;;;;;4957972;28;20086;-62
2023/06/19 06:09:04;;;;;;;8.80;6.35;;;;;;;;;;4957237;28;20089;-62
2023/06/19 06:11:29;;;;;;;11.77;6.22;;;;;;;;;;4952699;28;20031;-61
2023/06/19 06:13:54;;;;;;;10.40;6.63;;;;;;;;;;4955896;28;20122;-62
2023/06/19 06:16:19;;;;;;;11.45;6.50;;;;;;;;;;4954240;28;20035;-63
2023/06/19 06:18:45;;;;;;;9.97;6.07;;;;;;;;;;4953584;28;20575;-63
2023/06/19 06:21:12;;;;;;;10.38;6.05;;;;;;;;;;4954150;28;20031;-62
2023/06/19 06:23:37;;;;;;;9.48;5.80;;;;;;;;;;4954514;28;20033;-63
2023/06/19 06:26:02;;;;;;;9.23;6.10;;;;;;;;;;4948561;28;20031;-63
2023/06/19 06:28:28;;;;;;;9.47;5.93;;;;;;;;;;4949595;28;20094;-62
2023/06/19 06:30:54;;;;;;;7.80;5.70;;;;;;;;;;4947103;28;20047;-62
2023/06/19 06:33:19;;;;;;;10.35;6.40;;;;;;;;;;4947039;28;20023;-62
2023/06/19 06:35:44;;;;;;;8.80;6.13;;;;;;;;;;4942936;29;20055;-61
2023/06/19 06:38:09;;;;;;;8.32;5.45;;;;;;;;;;4951868;29;20046;-63
2023/06/19 06:40:35;;;;;;;8.35;5.80;;;;;;;;;;4951331;28;20051;-62
2023/06/19 06:43:00;;;;;;;8.18;5.60;;;;;;;;;;4950607;28;20444;-62
2023/06/19 06:45:25;;;;;;;8.73;6.28;;;;;;;;;;4943572;28;20046;-62
2023/06/19 06:47:50;;;;;;;8.75;6.22;;;;;;;;;;4954510;28;20035;-62
2023/06/19 06:50:15;;;;;;;8.48;5.88;;;;;;;;;;4954661;28;20419;-61
2023/06/19 06:52:40;;;;;;;12.47;6.10;;;;;;;;;;4951568;28;20070;-62
2023/06/19 06:55:06;;;;;;;8.32;5.82;;;;;;;;;;4953751;29;20042;-63
2023/06/19 06:57:31;;;;;;;9.60;5.83;;;;;;;;;;4951523;28;20054;-63
2023/06/19 06:59:56;;;;;;;9.50;5.97;;;;;;;;;;4955078;28;21071;-62
2023/06/19 07:02:21;;;;;;;9.17;5.57;;;;;;;;;;4953586;28;20020;-62
2023/06/19 07:04:46;;;;;;;8.43;5.47;;;;;;;;;;4951787;28;20031;-63
2023/06/19 07:07:12;;;;;;;10.98;5.90;;;;;;;;;;4944724;28;20102;-63
2023/06/19 07:09:37;;;;;;;8.27;5.90;;;;;;;;;;4949518;28;20038;-62
2023/06/19 07:12:04;;;;;;;8.68;6.28;;;;;;;;;;4953517;28;20063;-62
2023/06/19 07:14:30;;;;;;;10.02;6.30;;;;;;;;;;4955906;28;20023;-62
2023/06/19 07:16:55;;;;;;;11.13;6.20;;;;;;;;;;4954180;28;20031;-63
2023/06/19 07:19:20;;;;;;;8.48;6.07;;;;;;;;;;4954350;28;20430;-61
2023/06/19 07:21:45;;;;;;;8.88;6.63;;;;;;;;;;4954040;28;20019;-61
2023/06/19 07:24:10;;;;;;;7.60;5.60;;;;;;;;;;4950926;28;20031;-62
2023/06/19 07:26:35;;;;;;;8.57;5.33;;;;;;;;;;4958934;28;20538;-61
2023/06/19 07:29:01;;;;;;;8.75;5.90;;;;;;;;;;4956232;28;20026;-62
2023/06/19 07:31:26;;;;;;;9.13;6.17;;;;;;;;;;4955343;28;20019;-62
2023/06/19 07:33:51;;;;;;;10.65;6.55;;;;;;;;;;4957797;28;20205;-66
2023/06/19 07:36:16;;;;;;;9.80;6.13;;;;;;;;;;4960539;28;20066;-62
2023/06/19 07:38:42;;;;;;;10.07;5.80;;;;;;;;;;4968811;28;20079;-63
2023/06/19 07:41:09;;;;;;;;;;;;;;;;;;4973731;28;20065;-62
2023/06/19 07:43:34;;;;;;;8.20;5.60;;;;;;;;;;4972562;28;19906;-61
2023/06/19 07:45:59;;;;;;;;;;;;;;;;;;4973695;28;20023;-62
2023/06/19 07:48:24;;;;;;;8.38;5.78;;;;;;;;;;4956090;28;19910;-64
2023/06/19 07:50:50;;;;;;;8.93;5.80;;;;;;;;;;4969704;28;20018;-61
2023/06/19 07:53:15;;;;;;;8.48;5.55;;;;;;;;;;4965006;28;20033;-63
2023/06/19 07:55:40;;;;;;;8.30;6.10;;;;;;;;;;4951037;28;20032;-62
2023/06/19 07:58:06;;;;;;;8.57;5.70;;;;;;;;;;4934625;29;20098;-62
2023/06/19 08:00:31;;;;;;;9.70;5.80;;;;;;;;;;4946983;28;20022;-62
2023/06/19 08:02:56;;;;;;;15.30;6.23;;;;;;;;;;4958125;28;20065;-63
2023/06/19 08:05:21;;;;;;;8.50;6.13;;;;;;;;;;4945511;28;20105;-63
2023/06/19 08:07:46;;;;;;;10.07;6.60;;;;;;;;;;4955857;28;20104;-63
2023/06/19 08:10:11;;;;;;;9.20;6.22;;;;;;;;;;4965113;28;20022;-62
2023/06/19 08:12:37;;;;;;;14.75;6.85;;;;;;;;;;4968094;28;20046;-61
2023/06/19 08:15:02;;;;;;;8.60;6.23;;;;;;;;;;4953912;28;20483;-62
2023/06/19 08:17:27;;;;;;;;;;;;;;;;;;4965347;28;20019;-63
2023/06/19 08:19:52;;;;;;;8.90;5.65;;;;;;;;;;4972459;28;19910;-62
2023/06/19 08:22:17;;;;;;;;;;;;;;;;;;4933834;28;20543;-63
2023/06/19 08:24:42;;;;;;;8.45;5.93;;;;;;;;;;4948630;29;19914;-63
2023/06/19 08:27:08;;;;;;;7.78;5.38;;;;;;;;;;4954333;28;20531;-63
2023/06/19 08:29:33;;;;;;;8.93;5.80;;;;;;;;;;4963577;28;20503;-60
2023/06/19 08:31:58;;;;;;;;;;;;;;;;;;4952193;28;20062;-64
2023/06/19 08:34:23;;;;;;;8.68;5.57;;;;;;;;;;4950994;29;19910;-62
2023/06/19 08:36:48;;;;;;;;;;;;;;;;;;4953562;28;20399;-63
2023/06/19 08:39:13;;;;;;;8.25;5.85;;;;;;;;;;4952945;29;20263;-64
2023/06/19 08:41:39;;;;;;;9.03;5.80;;;;;;;;;;4952744;28;20023;-63
2023/06/19 08:44:04;;;;;;;;;;;;;;;;;;4947066;28;20395;-63
2023/06/19 08:46:29;;;;;;;8.65;5.90;;;;;;;;;;4964632;28;19906;-65
2023/06/19 08:48:55;;;;;;;10.00;6.13;;;;;;;;;;4972256;28;20509;-62
2023/06/19 08:51:20;;;;;;;8.15;5.43;;;;;;;;;;4972139;28;20029;-62
2023/06/19 08:53:52;;;;;;;9.35;6.03;;;;;;;;;;4971645;28;20045;-62
2023/06/19 08:56:17;;;;;;;;;;;;;;;;;;4972819;28;20137;-62
2023/06/19 08:58:42;;;;;;;7.22;5.53;;;;;;;;;;4972403;28;20074;-62
2023/06/19 09:01:07;;;;;;;9.10;6.20;;;;;;;;;;4966383;28;20158;-64
2023/06/19 09:03:32;;;;;;;10.30;5.70;;;;;;;;;;4965712;28;20850;-60
2023/06/19 09:06:02;;;;;;;8.15;6.15;;;;;;;;;;4972805;28;20030;-63
2023/06/19 09:08:27;;;;;;;8.82;5.60;;;;;;;;;;4950414;28;20047;-63
2023/06/19 09:10:56;;;;;;;10.80;6.00;;;;;;;;;;4960779;28;20016;-62
2023/06/19 09:13:21;;;;;;;9.77;6.20;;;;;;;;;;4976720;28;20089;-63
2023/06/19 09:15:46;;;;;;;8.80;6.13;;;;;;;;;;4960548;28;20459;-62
2023/06/19 09:18:12;;;;;;;9.10;6.32;;;;;;;;;;4953754;28;20495;-62
2023/06/19 09:20:40;;;;;;;8.23;5.72;;;;;;;;;;4968734;28;20019;-62
2023/06/19 09:23:05;;;;;;;9.77;6.10;;;;;;;;;;4976639;28;20015;-62
2023/06/19 09:25:30;;;;;;;9.93;6.10;;;;;;;;;;4967322;28;20031;-62
2023/06/19 09:27:55;;;;;;;;;;;;;;;;;;4978235;28;20061;-62
2023/06/19 09:30:21;;;;;;;7.97;5.93;;;;;;;;;;4973493;28;19957;-63
2023/06/19 09:32:46;;;;;;;10.60;6.38;;;;;;;;;;4971036;28;20391;-61
2023/06/19 09:35:11;;;;;;;10.93;6.40;;;;;;;;;;4981065;28;20487;-62
2023/06/19 09:37:37;;;;;;;9.40;6.60;;;;;;;;;;4980649;28;20023;-62
2023/06/19 09:40:10;;;;;;;9.40;5.97;;;;;;;;;;4981165;28;20025;-63
2023/06/19 09:42:36;;;;;;;9.55;6.72;;;;;;;;;;4975614;28;20026;-64
2023/06/19 09:45:04;;;;;;;8.73;6.13;;;;;;;;;;4967385;28;20583;-64
2023/06/19 09:47:35;;;;;;;8.30;5.95;;;;;;;;;;4967828;28;20033;-64
2023/06/19 09:50:01;;;;;;;9.57;6.30;;;;;;;;;;4975311;28;20525;-62
2023/06/19 09:52:27;;;;;;;12.38;6.25;;;;;;;;;;4973687;28;20035;-62
2023/06/19 09:54:53;;;;;;;9.50;6.45;;;;;;;;;;4964140;28;20403;-62
2023/06/19 09:57:18;;;;;;;;;;;;;;;;;;4975727;28;20045;-62
2023/06/19 09:59:45;;;;;;;9.57;6.27;;;;;;;;;;4975374;28;19981;-62
2023/06/19 10:02:11;;;;;;;12.35;6.35;;;;;;;;;;4967932;28;20030;-62
2023/06/19 10:04:46;;;;;;;11.38;6.30;;;;;;;;;;4969977;28;20360;-61
2023/06/19 10:07:18;;;;;;;12.15;6.70;;;;;;;;;;4974842;28;20027;-63
2023/06/19 10:10:01;;;;;;;10.85;6.57;;;;;;;;;;4975393;28;20023;-63
2023/06/19 10:12:40;;;;;;;9.60;6.43;;;;;;;;;;4974685;28;20018;-62
2023/06/19 10:15:14;;;;;;;10.43;6.40;;;;;;;;;;4973444;28;20019;-62
2023/06/19 10:18:00;;;;;;;8.45;6.43;;;;;;;;;;4967107;28;20027;-62
2023/06/19 10:20:32;;;;;;;9.50;6.03;;;;;;;;;;4974538;28;20041;-63
2023/06/19 10:22:59;;;;;;;9.60;6.32;;;;;;;;;;4962365;28;20077;-63
2023/06/19 10:25:24;;;;;;;9.50;6.35;;;;;;;;;;4955380;28;20023;-62
2023/06/19 10:27:52;;;;;;;8.63;6.03;;;;;;;;;;4955920;28;20102;-63
2023/06/19 10:30:20;;;;;;;9.60;6.45;;;;;;;;;;4955575;28;20072;-62
2023/06/19 10:32:46;;;;;;;10.63;6.20;;;;;;;;;;4953270;28;20147;-62
2023/06/19 10:35:12;;;;;;;8.82;6.40;;;;;;;;;;4954974;28;20463;-64
2023/06/19 10:37:37;;;;;;;8.75;5.95;;;;;;;;;;4957332;28;20376;-62
2023/06/19 10:40:05;;;;;;;9.70;6.30;;;;;;;;;;4967526;28;20030;-62
2023/06/19 10:42:33;;;;;;;8.45;6.45;;;;;;;;;;4967915;28;20398;-63
2023/06/19 10:45:05;;;;;;;9.73;6.85;;;;;;;;;;4974759;28;20026;-64
2023/06/19 10:47:31;;;;;;;8.35;6.05;;;;;;;;;;4975104;28;20019;-63
2023/06/19 10:49:56;;;;;;;10.07;6.38;;;;;;;;;;4967736;28;20471;-62
2023/06/19 10:52:21;;;;;;;10.68;6.63;;;;;;;;;;4957056;28;20023;-61
2023/06/19 10:54:47;;;;;;;;;;;;;;;;;;4966227;28;20038;-63
2023/06/19 10:57:13;;;;;;;9.30;6.63;;;;;;;;;;4974066;28;20318;-62
2023/06/19 10:59:39;;;;;;;9.45;6.30;;;;;;;;;;4974235;28;20026;-62
2023/06/19 11:02:05;;;;;;;;;;;;;;;;;;4973941;28;20023;-63
2023/06/19 11:04:30;;;;;;;10.98;6.32;;;;;;;;;;4970141;28;20385;-62
2023/06/19 11:06:56;;;;;;;8.43;6.33;;;;;;;;;;4962618;28;20034;-63
2023/06/19 11:09:21;;;;;;;8.10;6.32;;;;;;;;;;4966564;28;20042;-64
2023/06/19 11:11:46;;;;;;;;;;;;;;;;;;4974146;28;20021;-63
2023/06/19 11:14:13;;;;;;;10.27;6.57;;;;;;;;;;4973436;28;19910;-62
2023/06/19 11:16:38;;;;;;;;;;;;;;;;;;4974234;28;20031;-63
2023/06/19 11:19:03;;;;;;;8.68;5.88;;;;;;;;;;4969802;28;19925;-62
2023/06/19 11:21:29;;;;;;;;;;;;;;;;;;4966341;28;20023;-61
2023/06/19 11:23:57;;;;;;;8.45;6.50;;;;;;;;;;4972987;28;19928;-62
2023/06/19 11:26:24;;;;;;;9.52;6.57;;;;;;;;;;4953082;28;20099;-63
2023/06/19 11:28:49;;;;;;;8.77;6.05;;;;;;;;;;4958096;28;20063;-64
2023/06/19 11:31:15;;;;;;;;;;;;;;;;;;4959175;28;20076;-62
2023/06/19 11:33:40;;;;;;;10.45;6.65;;;;;;;;;;4967742;28;19961;-63
2023/06/19 11:36:06;;;;;;;;;;;;;;;;;;4973966;28;20093;-63
2023/06/19 11:38:33;;;;;;;9.73;6.82;;;;;;;;;;4964163;28;19914;-64
2023/06/19 11:40:58;;;;;;;9.18;6.50;;;;;;;;;;4935004;29;20046;-64
2023/06/19 11:43:23;;;;;;;;;;;;;;;;;;4934590;29;20468;-62
2023/06/19 11:45:49;;;;;;;8.20;6.43;;;;;;;;;;4957822;28;19910;-62
2023/06/19 11:48:14;;;;;;;8.27;6.63;;;;;;;;;;4972681;28;20534;-62
2023/06/19 11:50:39;;;;;;;;;;;;;;;;;;4974206;28;20402;-63
2023/06/19 11:53:04;;;;;;;8.77;6.00;;;;;;;;;;4954070;28;19910;-62
2023/06/19 11:55:29;;;;;;;;;;;;;;;;;;4955115;28;20038;-63
2023/06/19 11:57:54;;;;;;;8.32;6.00;;;;;;;;;;4961668;29;19918;-63
2023/06/19 12:00:20;;;;;;;;;;;;;;;;;;4967923;28;20023;-62
2023/06/19 12:02:47;;;;;;;8.07;6.10;;;;;;;;;;4968463;28;19910;-63
2023/06/19 12:05:12;;;;;;;7.78;5.65;;;;;;;;;;4973015;28;20027;-62
2023/06/19 12:07:37;;;;;;;;;;;;;;;;;;4973772;28;20011;-62
2023/06/19 12:10:03;;;;;;;9.77;5.60;;;;;;;;;;4972784;28;19906;-62
2023/06/19 12:12:29;;;;;;;9.00;6.00;;;;;;;;;;4972223;28;20022;-64
2023/06/19 12:14:54;;;;;;;;;;;;;;;;;;4966421;28;20034;-62
2023/06/19 12:17:19;;;;;;;8.20;5.78;;;;;;;;;;4964398;28;19914;-62
2023/06/19 12:19:44;;;;;;;11.18;6.07;;;;;;;;;;4963342;28;20019;-62
2023/06/19 12:22:09;;;;;;;8.00;5.47;;;;;;;;;;4950276;28;20051;-61
2023/06/19 12:24:35;;;;;;;9.27;5.55;;;;;;;;;;4934105;29;20043;-64
2023/06/19 12:27:00;;;;;;;9.23;5.63;;;;;;;;;;4934577;29;20028;-63
2023/06/19 12:29:26;;;;;;;7.25;5.30;;;;;;;;;;4935047;29;20051;-63
2023/06/19 12:31:51;;;;;;;7.55;5.40;;;;;;;;;;4956820;28;20035;-63
2023/06/19 12:34:17;;;;;;;7.65;5.65;;;;;;;;;;4972061;28;20023;-63
2023/06/19 12:36:42;;;;;;;7.80;5.47;;;;;;;;;;4957598;28;20120;-63
2023/06/19 12:39:14;;;;;;;7.32;5.13;;;;;;;;;;4956188;28;20138;-63
2023/06/19 12:41:39;;;;;;;7.88;4.80;;;;;;;;;;4963152;28;20072;-63
2023/06/19 12:44:04;;;;;;;6.82;5.03;;;;;;;;;;4963932;28;20018;-63
2023/06/19 12:46:30;;;;;;;9.20;5.53;;;;;;;;;;4971801;28;20034;-63
2023/06/19 12:48:55;;;;;;;9.10;5.22;;;;;;;;;;4972225;28;20471;-63
2023/06/19 12:51:20;;;;;;;7.88;5.22;;;;;;;;;;4954347;28;20046;-64
2023/06/19 12:53:45;;;;;;;7.70;5.40;;;;;;;;;;4955701;28;20034;-63
2023/06/19 12:56:10;;;;;;;;;;;;;;;;;;4971602;28;20482;-63
2023/06/19 12:58:35;;;;;;;7.47;5.80;;;;;;;;;;4971920;28;19953;-62
2023/06/19 13:01:01;;;;;;;9.00;6.20;;;;;;;;;;4971840;28;20027;-63
2023/06/19 13:03:26;;;;;;;8.82;6.10;;;;;;;;;;4971568;28;20031;-63
2023/06/19 13:05:51;;;;;;;9.63;5.90;;;;;;;;;;4965081;28;20503;-63
2023/06/19 13:08:16;;;;;;;10.83;6.17;;;;;;;;;;4963292;28;20027;-62
2023/06/19 13:10:41;;;;;;;8.23;6.43;;;;;;;;;;4972088;28;20029;-62
2023/06/19 13:13:06;;;;;;;11.27;6.57;;;;;;;;;;4971371;28;20027;-62
2023/06/19 13:15:33;;;;;;;8.83;6.80;;;;;;;;;;4971682;28;20487;-64
2023/06/19 13:17:59;;;;;;;9.73;6.28;;;;;;;;;;4967726;28;20086;-64
2023/06/19 13:20:24;;;;;;;10.02;6.85;;;;;;;;;;4950889;28;20107;-62
2023/06/19 13:22:49;;;;;;;10.30;6.70;;;;;;;;;;4941149;28;20506;-62
2023/06/19 13:25:14;;;;;;;9.57;6.90;;;;;;;;;;4965950;28;20057;-62
2023/06/19 13:27:39;;;;;;;8.63;6.60;;;;;;;;;;4966834;28;20026;-63
2023/06/19 13:30:05;;;;;;;8.95;6.70;;;;;;;;;;4972166;28;20050;-63
2023/06/19 13:32:30;;;;;;;8.00;6.45;;;;;;;;;;4971671;28;20019;-64
2023/06/19 13:34:56;;;;;;;12.43;6.50;;;;;;;;;;4971669;28;20458;-63
2023/06/19 13:37:21;;;;;;;11.20;7.15;;;;;;;;;;4971858;28;20096;-62
2023/06/19 13:39:46;;;;;;;10.90;7.50;;;;;;;;;;4962579;28;20034;-63
2023/06/19 13:42:12;;;;;;;9.23;6.77;;;;;;;;;;4963103;28;20046;-63
2023/06/19 13:44:37;;;;;;;11.02;7.43;;;;;;;;;;4961693;28;20090;-64
2023/06/19 13:47:03;;;;;;;9.32;6.93;;;;;;;;;;4970780;28;20371;-62
2023/06/19 13:49:28;;;;;;;10.93;7.50;;;;;;;;;;4972556;28;20035;-63
2023/06/19 13:51:53;;;;;;;10.60;7.13;;;;;;;;;;4947515;28;20050;-64
2023/06/19 13:54:20;;;;;;;9.07;7.40;;;;;;;;;;4959271;28;20578;-64
2023/06/19 13:56:45;;;;;;;11.35;7.47;;;;;;;;;;4967358;28;20050;-62
2023/06/19 13:59:11;;;;;;;10.13;7.70;;;;;;;;;;4974565;28;20386;-63
2023/06/19 14:01:36;;;;;;;9.23;7.37;;;;;;;;;;4975119;28;20046;-64
2023/06/19 14:04:01;;;;;;;10.38;7.07;;;;;;;;;;4974743;28;20050;-64
2023/06/19 14:06:26;;;;;;;11.75;7.60;;;;;;;;;;4963395;28;20039;-64
2023/06/19 14:08:51;;;;;;;9.50;6.80;;;;;;;;;;4971252;28;20486;-63
2023/06/19 14:11:18;;;;;;;9.97;7.67;;;;;;;;;;4975098;28;20022;-64
2023/06/19 14:13:43;;;;;;;12.35;7.32;;;;;;;;;;4974109;28;20029;-62
2023/06/19 14:16:08;;;;;;;10.52;7.40;;;;;;;;;;4975213;28;20031;-63
2023/06/19 14:18:35;;;;;;;12.02;8.10;;;;;;;;;;4956090;28;20039;-63
2023/06/19 14:21:00;;;;;;;12.48;7.82;;;;;;;;;;4966482;28;20051;-62
2023/06/19 14:23:25;;;;;;;11.20;7.83;;;;;;;;;;4978098;28;20034;-63
2023/06/19 14:25:50;;;;;;;10.18;6.97;;;;;;;;;;4977856;28;20525;-61
2023/06/19 14:28:15;;;;;;;11.48;7.80;;;;;;;;;;4976083;28;20025;-63
2023/06/19 14:30:41;;;;;;;10.90;7.30;;;;;;;;;;4954154;28;20028;-63
2023/06/19 14:33:10;;;;;;;9.77;7.03;;;;;;;;;;4971917;28;20391;-63
2023/06/19 14:35:35;;;;;;;9.45;7.22;;;;;;;;;;4944065;28;20082;-63